Terminal Aerodrome Forecast
Issued by NWS

Home | Current Version | Previous Version | Text Only | Print | Product List | Glossary On
Versions: 1 2 3 4 5 6 7 8 9 10 11 12 13 14 15
000
FTUS41 KALY 211500 AAA
TAFPSF
TAF AMD
KPSF 211500Z 2115/2212 04010G17KT P6SM BKN200
     FM212200 01007KT P6SM BKN250
     FM220200 02004KT P6SM SCT250=

USA.gov is the U.S. government's official web portal to all federal, state and local government web resources and services.